sensor_id;sensor_type;location;lat;lon;timestamp;P1;durP1;ratioP1;P2;durP2;ratioP2
6354;SDS011;3210;48.708;9.030;2023-07-30T00:02:18;5.93;;;3.40;;
6354;SDS011;3210;48.708;9.030;2023-07-30T00:04:45;8.20;;;3.67;;
6354;SDS011;3210;48.708;9.030;2023-07-30T00:07:13;3.90;;;3.60;;
6354;SDS011;3210;48.708;9.030;2023-07-30T00:09:41;6.20;;;3.90;;
6354;SDS011;3210;48.708;9.030;2023-07-30T00:12:08;4.23;;;3.73;;
6354;SDS011;3210;48.708;9.030;2023-07-30T00:14:35;12.37;;;3.87;;
6354;SDS011;3210;48.708;9.030;2023-07-30T00:17:02;13.83;;;3.60;;
6354;SDS011;3210;48.708;9.030;2023-07-30T00:19:29;6.47;;;3.30;;
6354;SDS011;3210;48.708;9.030;2023-07-30T00:21:56;4.10;;;3.70;;
6354;SDS011;3210;48.708;9.030;2023-07-30T00:24:23;4.53;;;4.10;;
6354;SDS011;3210;48.708;9.030;2023-07-30T00:26:51;5.53;;;4.37;;
6354;SDS011;3210;48.708;9.030;2023-07-30T00:29:18;6.60;;;3.90;;
6354;SDS011;3210;48.708;9.030;2023-07-30T00:31:45;6.13;;;4.63;;
6354;SDS011;3210;48.708;9.030;2023-07-30T00:34:11;8.03;;;5.20;;
6354;SDS011;3210;48.708;9.030;2023-07-30T00:36:38;4.87;;;4.10;;
6354;SDS011;3210;48.708;9.030;2023-07-30T00:39:05;5.20;;;4.17;;
6354;SDS011;3210;48.708;9.030;2023-07-30T00:41:32;11.03;;;4.70;;
6354;SDS011;3210;48.708;9.030;2023-07-30T00:44:00;4.23;;;3.90;;
6354;SDS011;3210;48.708;9.030;2023-07-30T00:46:27;5.57;;;4.20;;
6354;SDS011;3210;48.708;9.030;2023-07-30T00:48:53;6.27;;;4.30;;
6354;SDS011;3210;48.708;9.030;2023-07-30T00:51:20;12.33;;;4.73;;
6354;SDS011;3210;48.708;9.030;2023-07-30T00:53:47;7.43;;;4.20;;
6354;SDS011;3210;48.708;9.030;2023-07-30T00:56:14;3.60;;;3.30;;
6354;SDS011;3210;48.708;9.030;2023-07-30T00:58:42;3.73;;;3.43;;
6354;SDS011;3210;48.708;9.030;2023-07-30T01:01:11;5.43;;;3.77;;
6354;SDS011;3210;48.708;9.030;2023-07-30T01:03:38;4.80;;;4.00;;
6354;SDS011;3210;48.708;9.030;2023-07-30T01:06:05;4.27;;;3.70;;
6354;SDS011;3210;48.708;9.030;2023-07-30T01:08:33;5.07;;;4.57;;
6354;SDS011;3210;48.708;9.030;2023-07-30T01:11:00;5.10;;;4.27;;
6354;SDS011;3210;48.708;9.030;2023-07-30T01:13:28;5.30;;;3.87;;
6354;SDS011;3210;48.708;9.030;2023-07-30T01:15:56;6.00;;;3.60;;
6354;SDS011;3210;48.708;9.030;2023-07-30T01:18:24;5.43;;;3.80;;
6354;SDS011;3210;48.708;9.030;2023-07-30T01:20:54;5.73;;;4.13;;
6354;SDS011;3210;48.708;9.030;2023-07-30T01:23:24;4.87;;;4.37;;
6354;SDS011;3210;48.708;9.030;2023-07-30T01:25:52;15.70;;;4.70;;
6354;SDS011;3210;48.708;9.030;2023-07-30T01:28:25;7.77;;;4.70;;
6354;SDS011;3210;48.708;9.030;2023-07-30T01:30:54;6.77;;;4.30;;
6354;SDS011;3210;48.708;9.030;2023-07-30T01:33:25;5.07;;;4.57;;
6354;SDS011;3210;48.708;9.030;2023-07-30T01:35:54;4.50;;;4.10;;
6354;SDS011;3210;48.708;9.030;2023-07-30T01:38:23;6.27;;;4.33;;
6354;SDS011;3210;48.708;9.030;2023-07-30T01:40:51;7.10;;;4.00;;
6354;SDS011;3210;48.708;9.030;2023-07-30T01:43:18;6.80;;;4.67;;
6354;SDS011;3210;48.708;9.030;2023-07-30T01:45:45;4.80;;;4.40;;
6354;SDS011;3210;48.708;9.030;2023-07-30T01:48:11;5.30;;;4.37;;
6354;SDS011;3210;48.708;9.030;2023-07-30T01:50:38;6.23;;;4.10;;
6354;SDS011;3210;48.708;9.030;2023-07-30T01:53:06;3.43;;;3.23;;
6354;SDS011;3210;48.708;9.030;2023-07-30T01:55:33;5.10;;;3.70;;
6354;SDS011;3210;48.708;9.030;2023-07-30T01:58:00;4.07;;;3.53;;
6354;SDS011;3210;48.708;9.030;2023-07-30T02:00:27;4.20;;;3.63;;
6354;SDS011;3210;48.708;9.030;2023-07-30T02:02:54;7.90;;;3.70;;
6354;SDS011;3210;48.708;9.030;2023-07-30T02:05:20;3.77;;;3.27;;
6354;SDS011;3210;48.708;9.030;2023-07-30T02:07:47;5.67;;;3.93;;
6354;SDS011;3210;48.708;9.030;2023-07-30T02:10:15;2.67;;;2.47;;
6354;SDS011;3210;48.708;9.030;2023-07-30T02:12:42;9.17;;;3.17;;
6354;SDS011;3210;48.708;9.030;2023-07-30T02:15:09;5.07;;;2.30;;
6354;SDS011;3210;48.708;9.030;2023-07-30T02:17:36;2.73;;;2.47;;
6354;SDS011;3210;48.708;9.030;2023-07-30T02:20:03;2.40;;;2.30;;
6354;SDS011;3210;48.708;9.030;2023-07-30T02:22:31;2.53;;;2.33;;
6354;SDS011;3210;48.708;9.030;2023-07-30T02:24:57;3.30;;;2.60;;
6354;SDS011;3210;48.708;9.030;2023-07-30T02:27:25;4.43;;;2.03;;
6354;SDS011;3210;48.708;9.030;2023-07-30T02:29:52;2.83;;;2.47;;
6354;SDS011;3210;48.708;9.030;2023-07-30T02:32:19;5.73;;;2.40;;
6354;SDS011;3210;48.708;9.030;2023-07-30T02:34:46;11.97;;;2.00;;
6354;SDS011;3210;48.708;9.030;2023-07-30T02:37:12;2.20;;;2.00;;
6354;SDS011;3210;48.708;9.030;2023-07-30T02:39:39;2.27;;;2.07;;
6354;SDS011;3210;48.708;9.030;2023-07-30T02:42:07;2.50;;;2.30;;
6354;SDS011;3210;48.708;9.030;2023-07-30T02:44:35;2.00;;;1.90;;
6354;SDS011;3210;48.708;9.030;2023-07-30T02:47:02;4.40;;;2.10;;
6354;SDS011;3210;48.708;9.030;2023-07-30T02:49:28;3.30;;;2.63;;
6354;SDS011;3210;48.708;9.030;2023-07-30T02:51:55;3.17;;;2.37;;
6354;SDS011;3210;48.708;9.030;2023-07-30T02:54:22;2.00;;;1.90;;
6354;SDS011;3210;48.708;9.030;2023-07-30T02:56:49;2.93;;;2.20;;
6354;SDS011;3210;48.708;9.030;2023-07-30T02:59:16;3.40;;;2.37;;
6354;SDS011;3210;48.708;9.030;2023-07-30T03:01:44;2.90;;;2.50;;
6354;SDS011;3210;48.708;9.030;2023-07-30T03:04:11;2.17;;;1.73;;
6354;SDS011;3210;48.708;9.030;2023-07-30T03:06:37;2.83;;;1.80;;
6354;SDS011;3210;48.708;9.030;2023-07-30T03:09:04;2.80;;;2.60;;
6354;SDS011;3210;48.708;9.030;2023-07-30T03:11:31;4.70;;;2.30;;
6354;SDS011;3210;48.708;9.030;2023-07-30T03:13:58;2.07;;;1.97;;
6354;SDS011;3210;48.708;9.030;2023-07-30T03:16:24;3.23;;;2.60;;
6354;SDS011;3210;48.708;9.030;2023-07-30T03:18:53;2.70;;;2.50;;
6354;SDS011;3210;48.708;9.030;2023-07-30T03:21:18;2.63;;;2.43;;
6354;SDS011;3210;48.708;9.030;2023-07-30T03:23:45;3.10;;;2.27;;
6354;SDS011;3210;48.708;9.030;2023-07-30T03:26:13;3.80;;;2.67;;
6354;SDS011;3210;48.708;9.030;2023-07-30T03:28:40;5.47;;;2.10;;
6354;SDS011;3210;48.708;9.030;2023-07-30T03:31:07;6.60;;;2.70;;
6354;SDS011;3210;48.708;9.030;2023-07-30T03:33:33;5.00;;;3.63;;
6354;SDS011;3210;48.708;9.030;2023-07-30T03:36:02;2.83;;;2.53;;
6354;SDS011;3210;48.708;9.030;2023-07-30T03:38:29;2.67;;;1.90;;
6354;SDS011;3210;48.708;9.030;2023-07-30T03:40:56;4.30;;;2.10;;
6354;SDS011;3210;48.708;9.030;2023-07-30T03:43:22;3.27;;;2.97;;
6354;SDS011;3210;48.708;9.030;2023-07-30T03:45:49;2.93;;;2.40;;
6354;SDS011;3210;48.708;9.030;2023-07-30T03:48:16;4.40;;;2.30;;
6354;SDS011;3210;48.708;9.030;2023-07-30T03:50:42;3.37;;;2.70;;
6354;SDS011;3210;48.708;9.030;2023-07-30T03:53:11;6.37;;;2.60;;
6354;SDS011;3210;48.708;9.030;2023-07-30T03:55:37;2.90;;;2.57;;
6354;SDS011;3210;48.708;9.030;2023-07-30T03:58:04;5.00;;;2.77;;
6354;SDS011;3210;48.708;9.030;2023-07-30T04:00:31;3.63;;;2.27;;
6354;SDS011;3210;48.708;9.030;2023-07-30T04:02:58;6.73;;;2.50;;
6354;SDS011;3210;48.708;9.030;2023-07-30T04:05:24;3.90;;;2.60;;
6354;SDS011;3210;48.708;9.030;2023-07-30T04:07:51;4.47;;;2.23;;
6354;SDS011;3210;48.708;9.030;2023-07-30T04:10:19;3.67;;;2.10;;
6354;SDS011;3210;48.708;9.030;2023-07-30T04:12:46;4.57;;;2.50;;
6354;SDS011;3210;48.708;9.030;2023-07-30T04:15:14;2.20;;;2.10;;
6354;SDS011;3210;48.708;9.030;2023-07-30T04:17:41;11.53;;;2.43;;
6354;SDS011;3210;48.708;9.030;2023-07-30T04:20:08;8.10;;;2.20;;
6354;SDS011;3210;48.708;9.030;2023-07-30T04:22:36;5.80;;;2.70;;
6354;SDS011;3210;48.708;9.030;2023-07-30T04:25:03;3.90;;;2.13;;
6354;SDS011;3210;48.708;9.030;2023-07-30T04:27:31;2.10;;;1.80;;
6354;SDS011;3210;48.708;9.030;2023-07-30T04:29:58;2.50;;;2.30;;
6354;SDS011;3210;48.708;9.030;2023-07-30T04:32:25;4.40;;;2.30;;
6354;SDS011;3210;48.708;9.030;2023-07-30T04:34:52;2.83;;;2.30;;
6354;SDS011;3210;48.708;9.030;2023-07-30T04:37:18;3.23;;;3.03;;
6354;SDS011;3210;48.708;9.030;2023-07-30T04:39:45;4.60;;;2.93;;
6354;SDS011;3210;48.708;9.030;2023-07-30T04:42:12;2.70;;;2.50;;
6354;SDS011;3210;48.708;9.030;2023-07-30T04:44:41;11.70;;;3.10;;
6354;SDS011;3210;48.708;9.030;2023-07-30T04:47:08;3.50;;;2.70;;
6354;SDS011;3210;48.708;9.030;2023-07-30T04:49:35;3.40;;;3.10;;
6354;SDS011;3210;48.708;9.030;2023-07-30T04:52:02;8.53;;;2.67;;
6354;SDS011;3210;48.708;9.030;2023-07-30T04:54:29;6.73;;;2.50;;
6354;SDS011;3210;48.708;9.030;2023-07-30T04:56:56;4.13;;;2.23;;
6354;SDS011;3210;48.708;9.030;2023-07-30T04:59:23;2.80;;;2.13;;
6354;SDS011;3210;48.708;9.030;2023-07-30T05:01:51;3.00;;;2.80;;
6354;SDS011;3210;48.708;9.030;2023-07-30T05:04:18;3.67;;;2.80;;
6354;SDS011;3210;48.708;9.030;2023-07-30T05:06:45;3.00;;;2.47;;
6354;SDS011;3210;48.708;9.030;2023-07-30T05:09:11;3.40;;;3.10;;
6354;SDS011;3210;48.708;9.030;2023-07-30T05:11:38;3.60;;;3.10;;
6354;SDS011;3210;48.708;9.030;2023-07-30T05:14:05;3.67;;;3.40;;
6354;SDS011;3210;48.708;9.030;2023-07-30T05:16:32;2.80;;;2.60;;
6354;SDS011;3210;48.708;9.030;2023-07-30T05:19:00;4.47;;;3.00;;
6354;SDS011;3210;48.708;9.030;2023-07-30T05:21:27;3.87;;;3.43;;
6354;SDS011;3210;48.708;9.030;2023-07-30T05:23:53;4.50;;;3.03;;
6354;SDS011;3210;48.708;9.030;2023-07-30T05:26:20;7.80;;;3.30;;
6354;SDS011;3210;48.708;9.030;2023-07-30T05:28:47;2.33;;;2.17;;
6354;SDS011;3210;48.708;9.030;2023-07-30T05:31:14;7.17;;;2.57;;
6354;SDS011;3210;48.708;9.030;2023-07-30T05:33:40;2.47;;;2.27;;
6354;SDS011;3210;48.708;9.030;2023-07-30T05:36:09;4.23;;;2.67;;
6354;SDS011;3210;48.708;9.030;2023-07-30T05:38:35;3.40;;;2.23;;
6354;SDS011;3210;48.708;9.030;2023-07-30T05:41:02;3.50;;;2.57;;
6354;SDS011;3210;48.708;9.030;2023-07-30T05:43:29;3.27;;;2.27;;
6354;SDS011;3210;48.708;9.030;2023-07-30T05:45:56;2.30;;;2.20;;
6354;SDS011;3210;48.708;9.030;2023-07-30T05:48:22;2.30;;;2.20;;
6354;SDS011;3210;48.708;9.030;2023-07-30T05:50:49;3.30;;;2.20;;
6354;SDS011;3210;48.708;9.030;2023-07-30T05:53:18;2.40;;;2.10;;
6354;SDS011;3210;48.708;9.030;2023-07-30T05:55:44;5.47;;;1.97;;
6354;SDS011;3210;48.708;9.030;2023-07-30T05:58:11;3.53;;;2.00;;
6354;SDS011;3210;48.708;9.030;2023-07-30T06:00:38;2.80;;;2.30;;
6354;SDS011;3210;48.708;9.030;2023-07-30T06:03:05;2.80;;;2.50;;
6354;SDS011;3210;48.708;9.030;2023-07-30T06:05:38;1.70;;;1.60;;
6354;SDS011;3210;48.708;9.030;2023-07-30T06:08:06;2.80;;;2.60;;
6354;SDS011;3210;48.708;9.030;2023-07-30T06:10:35;8.23;;;2.50;;
6354;SDS011;3210;48.708;9.030;2023-07-30T06:13:02;2.40;;;2.20;;
6354;SDS011;3210;48.708;9.030;2023-07-30T06:15:29;2.67;;;2.47;;
6354;SDS011;3210;48.708;9.030;2023-07-30T06:17:56;4.70;;;1.80;;
6354;SDS011;3210;48.708;9.030;2023-07-30T06:20:22;4.23;;;2.20;;
6354;SDS011;3210;48.708;9.030;2023-07-30T06:22:49;1.70;;;1.60;;
6354;SDS011;3210;48.708;9.030;2023-07-30T06:25:16;4.13;;;2.00;;
6354;SDS011;3210;48.708;9.030;2023-07-30T06:27:44;1.83;;;1.73;;
6354;SDS011;3210;48.708;9.030;2023-07-30T06:30:11;2.60;;;2.20;;
6354;SDS011;3210;48.708;9.030;2023-07-30T06:32:37;1.67;;;1.57;;
6354;SDS011;3210;48.708;9.030;2023-07-30T06:35:05;6.43;;;1.93;;
6354;SDS011;3210;48.708;9.030;2023-07-30T06:37:32;1.40;;;1.30;;
6354;SDS011;3210;48.708;9.030;2023-07-30T06:39:59;1.83;;;1.40;;
6354;SDS011;3210;48.708;9.030;2023-07-30T06:42:28;1.90;;;1.80;;
6354;SDS011;3210;48.708;9.030;2023-07-30T06:44:57;1.70;;;1.60;;
6354;SDS011;3210;48.708;9.030;2023-07-30T06:47:23;1.13;;;0.93;;
6354;SDS011;3210;48.708;9.030;2023-07-30T06:49:50;1.80;;;1.33;;
6354;SDS011;3210;48.708;9.030;2023-07-30T06:52:17;2.30;;;1.23;;
6354;SDS011;3210;48.708;9.030;2023-07-30T06:54:44;6.83;;;1.10;;
6354;SDS011;3210;48.708;9.030;2023-07-30T06:57:11;1.40;;;1.30;;
6354;SDS011;3210;48.708;9.030;2023-07-30T06:59:37;1.70;;;1.60;;
6354;SDS011;3210;48.708;9.030;2023-07-30T07:02:05;1.43;;;1.33;;
6354;SDS011;3210;48.708;9.030;2023-07-30T07:04:32;3.33;;;1.23;;
6354;SDS011;3210;48.708;9.030;2023-07-30T07:06:59;1.87;;;1.20;;
6354;SDS011;3210;48.708;9.030;2023-07-30T07:09:28;2.00;;;1.80;;
6354;SDS011;3210;48.708;9.030;2023-07-30T07:11:55;1.23;;;1.13;;
6354;SDS011;3210;48.708;9.030;2023-07-30T07:14:22;1.33;;;1.10;;
6354;SDS011;3210;48.708;9.030;2023-07-30T07:16:48;4.70;;;1.70;;
6354;SDS011;3210;48.708;9.030;2023-07-30T07:19:16;1.57;;;1.47;;
6354;SDS011;3210;48.708;9.030;2023-07-30T07:21:43;2.17;;;1.50;;
6354;SDS011;3210;48.708;9.030;2023-07-30T07:24:10;9.00;;;2.40;;
6354;SDS011;3210;48.708;9.030;2023-07-30T07:26:37;3.23;;;2.07;;
6354;SDS011;3210;48.708;9.030;2023-07-30T07:29:03;2.43;;;2.07;;
6354;SDS011;3210;48.708;9.030;2023-07-30T07:31:30;5.30;;;1.87;;
6354;SDS011;3210;48.708;9.030;2023-07-30T07:33:57;4.00;;;1.57;;
6354;SDS011;3210;48.708;9.030;2023-07-30T07:36:25;3.13;;;1.60;;
6354;SDS011;3210;48.708;9.030;2023-07-30T07:38:52;3.40;;;1.43;;
6354;SDS011;3210;48.708;9.030;2023-07-30T07:41:19;1.60;;;1.50;;
6354;SDS011;3210;48.708;9.030;2023-07-30T07:43:46;1.83;;;1.07;;
6354;SDS011;3210;48.708;9.030;2023-07-30T07:46:14;2.00;;;1.50;;
6354;SDS011;3210;48.708;9.030;2023-07-30T07:48:41;1.43;;;1.10;;
6354;SDS011;3210;48.708;9.030;2023-07-30T07:51:09;4.30;;;1.40;;
6354;SDS011;3210;48.708;9.030;2023-07-30T07:53:38;1.33;;;1.23;;
6354;SDS011;3210;48.708;9.030;2023-07-30T07:56:05;2.63;;;1.10;;
6354;SDS011;3210;48.708;9.030;2023-07-30T07:58:32;1.40;;;1.30;;
6354;SDS011;3210;48.708;9.030;2023-07-30T08:00:59;1.30;;;1.20;;
6354;SDS011;3210;48.708;9.030;2023-07-30T08:03:26;1.43;;;1.33;;
6354;SDS011;3210;48.708;9.030;2023-07-30T08:05:52;1.37;;;0.90;;
6354;SDS011;3210;48.708;9.030;2023-07-30T08:08:19;2.20;;;1.40;;
6354;SDS011;3210;48.708;9.030;2023-07-30T08:10:47;1.00;;;1.00;;
6354;SDS011;3210;48.708;9.030;2023-07-30T08:13:15;2.40;;;1.20;;
6354;SDS011;3210;48.708;9.030;2023-07-30T08:15:41;1.10;;;1.00;;
6354;SDS011;3210;48.708;9.030;2023-07-30T08:18:08;1.13;;;1.03;;
6354;SDS011;3210;48.708;9.030;2023-07-30T08:20:35;1.70;;;1.60;;
6354;SDS011;3210;48.708;9.030;2023-07-30T08:23:02;1.73;;;1.63;;
6354;SDS011;3210;48.708;9.030;2023-07-30T08:25:29;3.53;;;1.50;;
6354;SDS011;3210;48.708;9.030;2023-07-30T08:27:57;4.53;;;1.50;;
6354;SDS011;3210;48.708;9.030;2023-07-30T08:30:23;5.63;;;1.03;;
6354;SDS011;3210;48.708;9.030;2023-07-30T08:32:50;3.73;;;1.60;;
6354;SDS011;3210;48.708;9.030;2023-07-30T08:35:17;1.33;;;1.20;;
6354;SDS011;3210;48.708;9.030;2023-07-30T08:37:44;1.40;;;1.30;;
6354;SDS011;3210;48.708;9.030;2023-07-30T08:40:11;2.13;;;1.40;;
6354;SDS011;3210;48.708;9.030;2023-07-30T08:42:37;1.50;;;1.40;;
6354;SDS011;3210;48.708;9.030;2023-07-30T08:45:06;1.30;;;1.20;;
6354;SDS011;3210;48.708;9.030;2023-07-30T08:47:33;1.57;;;1.47;;
6354;SDS011;3210;48.708;9.030;2023-07-30T08:50:00;1.20;;;1.10;;
6354;SDS011;3210;48.708;9.030;2023-07-30T08:52:27;1.93;;;1.23;;
6354;SDS011;3210;48.708;9.030;2023-07-30T08:54:55;1.47;;;1.37;;
6354;SDS011;3210;48.708;9.030;2023-07-30T08:57:25;2.17;;;1.77;;
6354;SDS011;3210;48.708;9.030;2023-07-30T08:59:54;1.70;;;1.60;;
6354;SDS011;3210;48.708;9.030;2023-07-30T09:02:37;1.30;;;1.20;;
6354;SDS011;3210;48.708;9.030;2023-07-30T09:05:06;1.30;;;1.20;;
6354;SDS011;3210;48.708;9.030;2023-07-30T09:07:33;1.20;;;1.10;;
6354;SDS011;3210;48.708;9.030;2023-07-30T09:10:00;1.30;;;1.20;;
6354;SDS011;3210;48.708;9.030;2023-07-30T09:12:28;2.13;;;1.30;;
6354;SDS011;3210;48.708;9.030;2023-07-30T09:14:56;1.67;;;1.57;;
6354;SDS011;3210;48.708;9.030;2023-07-30T09:17:23;2.60;;;1.40;;
6354;SDS011;3210;48.708;9.030;2023-07-30T09:19:51;1.70;;;1.60;;
6354;SDS011;3210;48.708;9.030;2023-07-30T09:22:24;4.80;;;1.20;;
6354;SDS011;3210;48.708;9.030;2023-07-30T09:24:52;1.87;;;1.77;;
6354;SDS011;3210;48.708;9.030;2023-07-30T09:27:20;1.50;;;1.40;;
6354;SDS011;3210;48.708;9.030;2023-07-30T09:29:50;2.27;;;1.77;;
6354;SDS011;3210;48.708;9.030;2023-07-30T09:32:18;1.97;;;1.83;;
6354;SDS011;3210;48.708;9.030;2023-07-30T09:34:45;1.97;;;1.47;;
6354;SDS011;3210;48.708;9.030;2023-07-30T09:37:14;2.07;;;1.97;;
6354;SDS011;3210;48.708;9.030;2023-07-30T09:39:41;3.73;;;1.73;;
6354;SDS011;3210;48.708;9.030;2023-07-30T09:42:08;2.00;;;1.73;;
6354;SDS011;3210;48.708;9.030;2023-07-30T09:44:38;1.80;;;1.70;;
6354;SDS011;3210;48.708;9.030;2023-07-30T09:47:08;1.83;;;1.67;;
6354;SDS011;3210;48.708;9.030;2023-07-30T09:49:36;2.90;;;1.77;;
6354;SDS011;3210;48.708;9.030;2023-07-30T09:52:03;2.10;;;1.43;;
6354;SDS011;3210;48.708;9.030;2023-07-30T09:54:33;5.17;;;1.63;;
6354;SDS011;3210;48.708;9.030;2023-07-30T09:57:00;1.60;;;1.50;;
6354;SDS011;3210;48.708;9.030;2023-07-30T09:59:28;8.20;;;1.87;;
6354;SDS011;3210;48.708;9.030;2023-07-30T10:01:55;1.50;;;1.40;;
6354;SDS011;3210;48.708;9.030;2023-07-30T10:04:24;1.37;;;1.13;;
6354;SDS011;3210;48.708;9.030;2023-07-30T10:06:54;34.87;;;1.90;;
6354;SDS011;3210;48.708;9.030;2023-07-30T10:09:25;1.70;;;1.27;;
6354;SDS011;3210;48.708;9.030;2023-07-30T10:11:58;2.30;;;1.77;;
6354;SDS011;3210;48.708;9.030;2023-07-30T10:14:26;2.53;;;1.47;;
6354;SDS011;3210;48.708;9.030;2023-07-30T10:16:54;1.90;;;1.70;;
6354;SDS011;3210;48.708;9.030;2023-07-30T10:19:22;2.17;;;1.97;;
6354;SDS011;3210;48.708;9.030;2023-07-30T10:21:50;2.33;;;1.70;;
6354;SDS011;3210;48.708;9.030;2023-07-30T10:24:17;6.27;;;1.80;;
6354;SDS011;3210;48.708;9.030;2023-07-30T10:26:43;1.67;;;1.57;;
6354;SDS011;3210;48.708;9.030;2023-07-30T10:29:12;2.13;;;1.40;;
6354;SDS011;3210;48.708;9.030;2023-07-30T10:31:40;1.50;;;1.40;;
6354;SDS011;3210;48.708;9.030;2023-07-30T10:34:08;1.70;;;1.40;;
6354;SDS011;3210;48.708;9.030;2023-07-30T10:36:38;3.43;;;1.53;;
6354;SDS011;3210;48.708;9.030;2023-07-30T10:39:13;10.23;;;1.53;;
6354;SDS011;3210;48.708;9.030;2023-07-30T10:41:40;2.70;;;1.50;;
6354;SDS011;3210;48.708;9.030;2023-07-30T10:44:18;1.90;;;1.70;;
6354;SDS011;3210;48.708;9.030;2023-07-30T10:46:47;1.57;;;1.47;;
6354;SDS011;3210;48.708;9.030;2023-07-30T10:49:14;1.57;;;1.47;;
6354;SDS011;3210;48.708;9.030;2023-07-30T10:51:41;2.07;;;1.57;;
6354;SDS011;3210;48.708;9.030;2023-07-30T10:54:07;4.63;;;1.63;;
6354;SDS011;3210;48.708;9.030;2023-07-30T10:56:35;1.47;;;1.30;;
6354;SDS011;3210;48.708;9.030;2023-07-30T10:59:03;4.93;;;2.20;;
6354;SDS011;3210;48.708;9.030;2023-07-30T11:01:35;2.70;;;1.60;;
6354;SDS011;3210;48.708;9.030;2023-07-30T11:04:05;2.93;;;1.70;;
6354;SDS011;3210;48.708;9.030;2023-07-30T11:06:32;2.00;;;1.30;;
6354;SDS011;3210;48.708;9.030;2023-07-30T11:08:59;4.97;;;1.97;;
6354;SDS011;3210;48.708;9.030;2023-07-30T11:11:26;1.90;;;1.47;;
6354;SDS011;3210;48.708;9.030;2023-07-30T11:13:53;2.60;;;1.90;;
6354;SDS011;3210;48.708;9.030;2023-07-30T11:16:20;3.47;;;1.60;;
6354;SDS011;3210;48.708;9.030;2023-07-30T11:18:49;2.37;;;1.50;;
6354;SDS011;3210;48.708;9.030;2023-07-30T11:21:16;1.87;;;1.73;;
6354;SDS011;3210;48.708;9.030;2023-07-30T11:23:44;3.23;;;2.00;;
6354;SDS011;3210;48.708;9.030;2023-07-30T11:26:14;2.30;;;2.10;;
6354;SDS011;3210;48.708;9.030;2023-07-30T11:28:42;3.70;;;2.00;;
6354;SDS011;3210;48.708;9.030;2023-07-30T11:31:09;1.70;;;1.47;;
6354;SDS011;3210;48.708;9.030;2023-07-30T11:33:39;2.43;;;2.03;;
6354;SDS011;3210;48.708;9.030;2023-07-30T11:36:09;2.00;;;1.90;;
6354;SDS011;3210;48.708;9.030;2023-07-30T11:38:38;2.30;;;1.27;;
6354;SDS011;3210;48.708;9.030;2023-07-30T11:41:05;3.20;;;1.50;;
6354;SDS011;3210;48.708;9.030;2023-07-30T11:43:35;1.70;;;1.60;;
6354;SDS011;3210;48.708;9.030;2023-07-30T11:46:09;4.33;;;2.00;;
6354;SDS011;3210;48.708;9.030;2023-07-30T11:48:40;1.70;;;1.60;;
6354;SDS011;3210;48.708;9.030;2023-07-30T11:51:19;1.80;;;1.70;;
6354;SDS011;3210;48.708;9.030;2023-07-30T11:53:47;2.20;;;1.50;;
6354;SDS011;3210;48.708;9.030;2023-07-30T11:56:19;2.43;;;1.70;;
6354;SDS011;3210;48.708;9.030;2023-07-30T11:58:48;3.03;;;2.17;;
6354;SDS011;3210;48.708;9.030;2023-07-30T12:01:15;1.87;;;1.47;;
6354;SDS011;3210;48.708;9.030;2023-07-30T12:03:43;2.70;;;2.00;;
6354;SDS011;3210;48.708;9.030;2023-07-30T12:06:10;2.33;;;1.37;;
6354;SDS011;3210;48.708;9.030;2023-07-30T12:08:39;2.30;;;2.10;;
6354;SDS011;3210;48.708;9.030;2023-07-30T12:11:06;2.00;;;1.90;;
6354;SDS011;3210;48.708;9.030;2023-07-30T12:13:41;2.00;;;1.80;;
6354;SDS011;3210;48.708;9.030;2023-07-30T12:16:10;2.40;;;2.17;;
6354;SDS011;3210;48.708;9.030;2023-07-30T12:18:38;2.40;;;1.30;;
6354;SDS011;3210;48.708;9.030;2023-07-30T12:21:05;2.17;;;1.93;;
6354;SDS011;3210;48.708;9.030;2023-07-30T12:23:33;2.20;;;1.93;;
6354;SDS011;3210;48.708;9.030;2023-07-30T12:26:01;2.07;;;1.87;;
6354;SDS011;3210;48.708;9.030;2023-07-30T12:28:29;4.40;;;2.00;;
6354;SDS011;3210;48.708;9.030;2023-07-30T12:30:56;2.30;;;1.80;;
6354;SDS011;3210;48.708;9.030;2023-07-30T12:33:23;1.83;;;1.70;;
6354;SDS011;3210;48.708;9.030;2023-07-30T12:35:50;2.90;;;2.37;;
6354;SDS011;3210;48.708;9.030;2023-07-30T12:38:18;10.13;;;2.57;;
6354;SDS011;3210;48.708;9.030;2023-07-30T12:40:45;2.03;;;1.80;;
6354;SDS011;3210;48.708;9.030;2023-07-30T12:43:13;2.40;;;1.70;;
6354;SDS011;3210;48.708;9.030;2023-07-30T12:45:39;1.87;;;1.43;;
6354;SDS011;3210;48.708;9.030;2023-07-30T12:48:06;1.60;;;1.50;;
6354;SDS011;3210;48.708;9.030;2023-07-30T12:50:33;2.70;;;1.90;;
6354;SDS011;3210;48.708;9.030;2023-07-30T12:53:00;2.50;;;1.47;;
6354;SDS011;3210;48.708;9.030;2023-07-30T12:55:27;2.20;;;1.43;;
6354;SDS011;3210;48.708;9.030;2023-07-30T12:57:53;1.50;;;1.30;;
6354;SDS011;3210;48.708;9.030;2023-07-30T13:00:21;1.97;;;1.77;;
6354;SDS011;3210;48.708;9.030;2023-07-30T13:02:48;4.57;;;1.53;;
6354;SDS011;3210;48.708;9.030;2023-07-30T13:05:17;10.10;;;2.27;;
6354;SDS011;3210;48.708;9.030;2023-07-30T13:07:44;1.60;;;1.50;;
6354;SDS011;3210;48.708;9.030;2023-07-30T13:10:11;2.20;;;1.50;;
6354;SDS011;3210;48.708;9.030;2023-07-30T13:12:37;2.13;;;1.30;;
6354;SDS011;3210;48.708;9.030;2023-07-30T13:15:04;4.50;;;1.20;;
6354;SDS011;3210;48.708;9.030;2023-07-30T13:17:33;2.27;;;1.57;;
6354;SDS011;3210;48.708;9.030;2023-07-30T13:20:00;1.20;;;1.07;;
6354;SDS011;3210;48.708;9.030;2023-07-30T13:22:27;2.60;;;2.37;;
6354;SDS011;3210;48.708;9.030;2023-07-30T13:24:54;3.57;;;1.80;;
6354;SDS011;3210;48.708;9.030;2023-07-30T13:27:20;6.03;;;1.47;;
6354;SDS011;3210;48.708;9.030;2023-07-30T13:29:47;2.50;;;1.73;;
6354;SDS011;3210;48.708;9.030;2023-07-30T13:32:14;7.33;;;1.80;;
6354;SDS011;3210;48.708;9.030;2023-07-30T13:34:42;1.70;;;1.60;;
6354;SDS011;3210;48.708;9.030;2023-07-30T13:37:09;1.70;;;1.60;;
6354;SDS011;3210;48.708;9.030;2023-07-30T13:39:36;2.07;;;1.87;;
6354;SDS011;3210;48.708;9.030;2023-07-30T13:42:03;2.30;;;1.67;;
6354;SDS011;3210;48.708;9.030;2023-07-30T13:44:30;1.97;;;1.73;;
6354;SDS011;3210;48.708;9.030;2023-07-30T13:46:57;4.80;;;1.60;;
6354;SDS011;3210;48.708;9.030;2023-07-30T13:49:24;2.47;;;1.20;;
6354;SDS011;3210;48.708;9.030;2023-07-30T13:51:52;2.47;;;1.53;;
6354;SDS011;3210;48.708;9.030;2023-07-30T13:54:19;5.60;;;1.90;;
6354;SDS011;3210;48.708;9.030;2023-07-30T13:56:45;1.30;;;1.20;;
6354;SDS011;3210;48.708;9.030;2023-07-30T13:59:12;1.00;;;0.87;;
6354;SDS011;3210;48.708;9.030;2023-07-30T14:01:39;2.03;;;1.50;;
6354;SDS011;3210;48.708;9.030;2023-07-30T14:04:05;2.40;;;1.33;;
6354;SDS011;3210;48.708;9.030;2023-07-30T14:06:32;5.43;;;1.87;;
6354;SDS011;3210;48.708;9.030;2023-07-30T14:09:00;5.40;;;2.00;;
6354;SDS011;3210;48.708;9.030;2023-07-30T14:11:28;2.57;;;1.40;;
6354;SDS011;3210;48.708;9.030;2023-07-30T14:13:55;2.87;;;1.60;;
6354;SDS011;3210;48.708;9.030;2023-07-30T14:16:23;3.80;;;1.60;;
6354;SDS011;3210;48.708;9.030;2023-07-30T14:18:49;14.07;;;3.20;;
6354;SDS011;3210;48.708;9.030;2023-07-30T14:21:16;5.50;;;1.83;;
6354;SDS011;3210;48.708;9.030;2023-07-30T14:23:43;4.17;;;2.00;;
6354;SDS011;3210;48.708;9.030;2023-07-30T14:26:11;1.77;;;1.37;;
6354;SDS011;3210;48.708;9.030;2023-07-30T14:28:38;12.27;;;1.53;;
6354;SDS011;3210;48.708;9.030;2023-07-30T14:31:05;2.50;;;1.33;;
6354;SDS011;3210;48.708;9.030;2023-07-30T14:33:32;6.20;;;1.37;;
6354;SDS011;3210;48.708;9.030;2023-07-30T14:35:58;3.57;;;1.33;;
6354;SDS011;3210;48.708;9.030;2023-07-30T14:38:25;5.10;;;2.03;;
6354;SDS011;3210;48.708;9.030;2023-07-30T14:40:52;4.07;;;1.50;;
6354;SDS011;3210;48.708;9.030;2023-07-30T14:43:20;4.47;;;1.53;;
6354;SDS011;3210;48.708;9.030;2023-07-30T14:45:48;3.00;;;1.40;;
6354;SDS011;3210;48.708;9.030;2023-07-30T14:48:15;2.67;;;1.30;;
6354;SDS011;3210;48.708;9.030;2023-07-30T14:50:41;3.27;;;1.33;;
6354;SDS011;3210;48.708;9.030;2023-07-30T14:53:08;3.40;;;1.37;;
6354;SDS011;3210;48.708;9.030;2023-07-30T14:55:35;3.50;;;1.73;;
6354;SDS011;3210;48.708;9.030;2023-07-30T14:58:02;2.60;;;1.10;;
6354;SDS011;3210;48.708;9.030;2023-07-30T15:00:30;3.00;;;0.90;;
6354;SDS011;3210;48.708;9.030;2023-07-30T15:02:57;4.00;;;1.40;;
6354;SDS011;3210;48.708;9.030;2023-07-30T15:05:24;2.70;;;1.20;;
6354;SDS011;3210;48.708;9.030;2023-07-30T15:07:51;3.27;;;1.00;;
6354;SDS011;3210;48.708;9.030;2023-07-30T15:10:18;5.00;;;1.33;;
6354;SDS011;3210;48.708;9.030;2023-07-30T15:12:45;9.10;;;1.50;;
6354;SDS011;3210;48.708;9.030;2023-07-30T15:15:11;3.10;;;1.63;;
6354;SDS011;3210;48.708;9.030;2023-07-30T15:17:40;2.50;;;1.17;;